sensor_id;sensor_type;location;lat;lon;timestamp;pressure;altitude;pressure_sealevel;temperature;humidity
40940;BME280;26666;50.156;7.700;2022-08-03T00:03:26;100511.84;;;20.53;62.82
40940;BME280;26666;50.156;7.700;2022-08-03T00:08:28;100506.38;;;20.61;62.53
40940;BME280;26666;50.156;7.700;2022-08-03T00:13:30;100500.66;;;20.28;63.84
40940;BME280;26666;50.156;7.700;2022-08-03T00:18:31;100505.63;;;20.53;63.08
40940;BME280;26666;50.156;7.700;2022-08-03T00:23:33;100502.59;;;20.34;63.94
40940;BME280;26666;50.156;7.700;2022-08-03T00:28:52;100490.91;;;20.20;64.64
40940;BME280;26666;50.156;7.700;2022-08-03T00:33:54;100491.59;;;20.29;64.06
40940;BME280;26666;50.156;7.700;2022-08-03T00:39:00;100499.75;;;20.21;65.45
40940;BME280;26666;50.156;7.700;2022-08-03T00:49:03;100492.78;;;20.05;65.40
40940;BME280;26666;50.156;7.700;2022-08-03T00:54:05;100484.91;;;20.18;65.02
40940;BME280;26666;50.156;7.700;2022-08-03T00:59:08;100489.94;;;20.06;65.39
40940;BME280;26666;50.156;7.700;2022-08-03T01:04:10;100491.09;;;19.82;65.96
40940;BME280;26666;50.156;7.700;2022-08-03T01:09:18;100486.75;;;19.81;66.52
40940;BME280;26666;50.156;7.700;2022-08-03T01:14:33;100482.25;;;20.03;65.95
40940;BME280;26666;50.156;7.700;2022-08-03T01:20:06;100484.53;;;19.85;66.25
40940;BME280;26666;50.156;7.700;2022-08-03T01:26:22;100479.25;;;19.77;66.80
40940;BME280;26666;50.156;7.700;2022-08-03T01:30:58;100474.28;;;19.59;66.92
40940;BME280;26666;50.156;7.700;2022-08-03T01:36:09;100480.22;;;19.39;67.74
40940;BME280;26666;50.156;7.700;2022-08-03T01:41:16;100472.19;;;19.54;68.81
40940;BME280;26666;50.156;7.700;2022-08-03T01:46:20;100474.81;;;19.69;68.25
40940;BME280;26666;50.156;7.700;2022-08-03T01:51:22;100476.50;;;19.55;69.53
40940;BME280;26666;50.156;7.700;2022-08-03T01:56:45;100462.41;;;19.46;68.30
40940;BME280;26666;50.156;7.700;2022-08-03T02:01:49;100468.09;;;19.58;69.47
40940;BME280;26666;50.156;7.700;2022-08-03T02:07:11;100467.94;;;19.45;68.75
40940;BME280;26666;50.156;7.700;2022-08-03T02:12:14;100464.16;;;19.39;69.29
40940;BME280;26666;50.156;7.700;2022-08-03T02:17:17;100466.53;;;19.49;69.17
40940;BME280;26666;50.156;7.700;2022-08-03T02:22:41;100466.00;;;19.39;69.98
40940;BME280;26666;50.156;7.700;2022-08-03T02:27:50;100472.84;;;19.26;70.24
40940;BME280;26666;50.156;7.700;2022-08-03T02:32:54;100467.28;;;19.28;69.73
40940;BME280;26666;50.156;7.700;2022-08-03T02:38:00;100467.00;;;18.93;70.59
40940;BME280;26666;50.156;7.700;2022-08-03T02:43:06;100465.44;;;19.14;70.13
40940;BME280;26666;50.156;7.700;2022-08-03T02:48:09;100466.19;;;18.69;71.99
40940;BME280;26666;50.156;7.700;2022-08-03T02:53:12;100465.28;;;18.77;71.82
40940;BME280;26666;50.156;7.700;2022-08-03T02:58:18;100463.94;;;18.81;71.66
40940;BME280;26666;50.156;7.700;2022-08-03T03:03:21;100457.31;;;18.92;71.62
40940;BME280;26666;50.156;7.700;2022-08-03T03:08:23;100459.94;;;18.77;72.04
40940;BME280;26666;50.156;7.700;2022-08-03T03:13:30;100455.13;;;18.96;71.00
40940;BME280;26666;50.156;7.700;2022-08-03T03:18:33;100461.47;;;18.80;72.18
40940;BME280;26666;50.156;7.700;2022-08-03T03:23:36;100462.84;;;18.90;71.69
40940;BME280;26666;50.156;7.700;2022-08-03T03:28:38;100464.97;;;18.57;72.60
40940;BME280;26666;50.156;7.700;2022-08-03T03:33:41;100455.41;;;18.63;73.21
40940;BME280;26666;50.156;7.700;2022-08-03T03:38:43;100457.84;;;18.49;73.18
40940;BME280;26666;50.156;7.700;2022-08-03T03:43:44;100463.84;;;18.51;74.20
40940;BME280;26666;50.156;7.700;2022-08-03T03:48:49;100469.25;;;18.66;73.43
40940;BME280;26666;50.156;7.700;2022-08-03T03:53:59;100458.31;;;18.53;73.94
40940;BME280;26666;50.156;7.700;2022-08-03T03:59:01;100463.97;;;18.58;73.25
40940;BME280;26666;50.156;7.700;2022-08-03T04:04:02;100465.72;;;18.66;73.74
40940;BME280;26666;50.156;7.700;2022-08-03T04:09:05;100465.91;;;18.87;73.13
40940;BME280;26666;50.156;7.700;2022-08-03T04:14:17;100461.56;;;18.63;73.74
40940;BME280;26666;50.156;7.700;2022-08-03T04:24:40;100459.56;;;18.42;75.38
40940;BME280;26666;50.156;7.700;2022-08-03T04:29:46;100469.13;;;18.60;74.13
40940;BME280;26666;50.156;7.700;2022-08-03T04:34:49;100478.06;;;18.52;73.82
40940;BME280;26666;50.156;7.700;2022-08-03T04:39:52;100470.00;;;18.14;75.55
40940;BME280;26666;50.156;7.700;2022-08-03T04:44:58;100470.03;;;18.29;75.94
40940;BME280;26666;50.156;7.700;2022-08-03T04:50:03;100476.16;;;18.61;75.15
40940;BME280;26666;50.156;7.700;2022-08-03T04:55:24;100477.66;;;19.31;72.56
40940;BME280;26666;50.156;7.700;2022-08-03T05:00:26;100488.13;;;20.14;69.63
40940;BME280;26666;50.156;7.700;2022-08-03T05:05:28;100494.72;;;20.11;69.62
40940;BME280;26666;50.156;7.700;2022-08-03T05:10:49;100495.72;;;21.03;66.37
40940;BME280;26666;50.156;7.700;2022-08-03T05:15:51;100501.09;;;21.31;65.51
40940;BME280;26666;50.156;7.700;2022-08-03T05:20:52;100501.03;;;21.59;64.84
40940;BME280;26666;50.156;7.700;2022-08-03T05:25:54;100501.66;;;22.23;62.63
40940;BME280;26666;50.156;7.700;2022-08-03T05:30:56;100497.78;;;22.66;61.35
40940;BME280;26666;50.156;7.700;2022-08-03T05:35:57;100501.72;;;22.70;60.68
40940;BME280;26666;50.156;7.700;2022-08-03T05:41:05;100493.53;;;23.56;59.17
40940;BME280;26666;50.156;7.700;2022-08-03T05:46:24;100490.22;;;24.31;56.56
40940;BME280;26666;50.156;7.700;2022-08-03T05:51:25;100495.09;;;24.98;54.89
40940;BME280;26666;50.156;7.700;2022-08-03T05:56:27;100497.78;;;24.98;54.91
40940;BME280;26666;50.156;7.700;2022-08-03T06:01:29;100492.47;;;25.84;53.09
40940;BME280;26666;50.156;7.700;2022-08-03T06:06:30;100494.34;;;25.83;52.82
40940;BME280;26666;50.156;7.700;2022-08-03T06:11:32;100490.66;;;26.38;51.29
40940;BME280;26666;50.156;7.700;2022-08-03T06:16:34;100488.50;;;26.70;50.54
40940;BME280;26666;50.156;7.700;2022-08-03T06:21:36;100495.88;;;26.51;51.99
40940;BME280;26666;50.156;7.700;2022-08-03T06:26:40;100484.63;;;26.66;51.39
40940;BME280;26666;50.156;7.700;2022-08-03T06:31:41;100487.81;;;26.75;51.38
40940;BME280;26666;50.156;7.700;2022-08-03T06:36:43;100477.19;;;27.09;50.11
40940;BME280;26666;50.156;7.700;2022-08-03T06:41:44;100480.13;;;27.71;48.96
40940;BME280;26666;50.156;7.700;2022-08-03T06:46:46;100476.69;;;27.76;48.86
40940;BME280;26666;50.156;7.700;2022-08-03T06:51:47;100479.41;;;28.05;48.10
40940;BME280;26666;50.156;7.700;2022-08-03T06:57:05;100479.41;;;29.06;47.21
40940;BME280;26666;50.156;7.700;2022-08-03T07:02:06;100475.47;;;27.55;48.64
40940;BME280;26666;50.156;7.700;2022-08-03T07:07:08;100476.81;;;28.44;48.32
40940;BME280;26666;50.156;7.700;2022-08-03T07:12:10;100471.81;;;28.36;47.48
40940;BME280;26666;50.156;7.700;2022-08-03T07:17:13;100474.06;;;28.56;46.22
40940;BME280;26666;50.156;7.700;2022-08-03T07:22:15;100486.59;;;29.74;43.27
40940;BME280;26666;50.156;7.700;2022-08-03T07:27:17;100480.88;;;29.31;44.63
40940;BME280;26666;50.156;7.700;2022-08-03T07:32:18;100484.16;;;29.55;44.59
40940;BME280;26666;50.156;7.700;2022-08-03T07:37:20;100472.06;;;30.22;43.68
40940;BME280;26666;50.156;7.700;2022-08-03T07:42:21;100482.53;;;30.68;42.77
40940;BME280;26666;50.156;7.700;2022-08-03T07:47:25;100477.47;;;32.18;39.33
40940;BME280;26666;50.156;7.700;2022-08-03T07:52:36;100471.78;;;31.41;41.04
40940;BME280;26666;50.156;7.700;2022-08-03T07:57:37;100461.84;;;31.98;39.28
40940;BME280;26666;50.156;7.700;2022-08-03T08:02:40;100460.75;;;32.76;38.66
40940;BME280;26666;50.156;7.700;2022-08-03T08:07:41;100459.69;;;36.01;33.76
40940;BME280;26666;50.156;7.700;2022-08-03T08:12:43;100441.88;;;37.05;31.00
40940;BME280;26666;50.156;7.700;2022-08-03T08:17:47;100438.44;;;33.29;35.95
40940;BME280;26666;50.156;7.700;2022-08-03T08:22:49;100437.97;;;33.07;36.53
40940;BME280;26666;50.156;7.700;2022-08-03T08:27:52;100434.16;;;30.48;41.05
40940;BME280;26666;50.156;7.700;2022-08-03T08:33:14;100433.78;;;30.39;40.72
40940;BME280;26666;50.156;7.700;2022-08-03T08:38:24;100428.25;;;30.29;39.97
40940;BME280;26666;50.156;7.700;2022-08-03T08:43:26;100424.06;;;31.49;37.98
40940;BME280;26666;50.156;7.700;2022-08-03T08:48:29;100421.53;;;31.37;37.73
40940;BME280;26666;50.156;7.700;2022-08-03T08:53:34;100426.00;;;31.79;37.35
40940;BME280;26666;50.156;7.700;2022-08-03T08:58:43;100418.94;;;31.05;38.06
40940;BME280;26666;50.156;7.700;2022-08-03T09:03:47;100419.28;;;31.14;38.21
40940;BME280;26666;50.156;7.700;2022-08-03T09:08:49;100409.53;;;30.80;38.39
40940;BME280;26666;50.156;7.700;2022-08-03T09:13:51;100404.66;;;30.88;37.98
40940;BME280;26666;50.156;7.700;2022-08-03T09:18:53;100400.22;;;30.76;38.22
40940;BME280;26666;50.156;7.700;2022-08-03T09:23:57;100407.19;;;30.94;38.42
40940;BME280;26666;50.156;7.700;2022-08-03T09:29:07;100399.25;;;30.93;38.74
40940;BME280;26666;50.156;7.700;2022-08-03T09:34:16;100392.88;;;31.35;38.04
40940;BME280;26666;50.156;7.700;2022-08-03T09:39:20;100386.69;;;31.91;36.57
40940;BME280;26666;50.156;7.700;2022-08-03T09:44:46;100376.56;;;31.81;37.18
40940;BME280;26666;50.156;7.700;2022-08-03T09:50:06;100376.88;;;31.90;36.11
40940;BME280;26666;50.156;7.700;2022-08-03T09:55:10;100370.03;;;31.77;36.33
40940;BME280;26666;50.156;7.700;2022-08-03T10:00:32;100366.50;;;32.07;36.37
40940;BME280;26666;50.156;7.700;2022-08-03T10:05:53;100355.78;;;32.52;35.76
40940;BME280;26666;50.156;7.700;2022-08-03T10:11:00;100362.06;;;32.52;35.65
40940;BME280;26666;50.156;7.700;2022-08-03T10:16:01;100356.88;;;32.35;36.24
40940;BME280;26666;50.156;7.700;2022-08-03T10:21:25;100353.03;;;32.47;35.94
40940;BME280;26666;50.156;7.700;2022-08-03T10:26:30;100347.03;;;32.39;35.03
40940;BME280;26666;50.156;7.700;2022-08-03T10:31:38;100344.31;;;32.45;35.79
40940;BME280;26666;50.156;7.700;2022-08-03T10:36:59;100344.56;;;32.58;35.48
40940;BME280;26666;50.156;7.700;2022-08-03T10:42:02;100332.28;;;32.35;34.86
40940;BME280;26666;50.156;7.700;2022-08-03T10:47:05;100324.97;;;32.20;35.94
40940;BME280;26666;50.156;7.700;2022-08-03T10:52:08;100320.28;;;32.26;35.74
40940;BME280;26666;50.156;7.700;2022-08-03T10:58:00;100306.06;;;32.29;35.90
40940;BME280;26666;50.156;7.700;2022-08-03T11:03:09;100297.47;;;32.67;34.85
40940;BME280;26666;50.156;7.700;2022-08-03T11:13:21;100298.41;;;32.36;35.75
40940;BME280;26666;50.156;7.700;2022-08-03T11:18:23;100302.25;;;32.25;35.31
40940;BME280;26666;50.156;7.700;2022-08-03T11:23:57;100294.63;;;32.12;35.50
40940;BME280;26666;50.156;7.700;2022-08-03T11:29:26;100296.81;;;32.05;37.24
40940;BME280;26666;50.156;7.700;2022-08-03T11:34:27;100299.75;;;32.34;35.31
40940;BME280;26666;50.156;7.700;2022-08-03T11:39:40;100296.25;;;31.97;34.98
40940;BME280;26666;50.156;7.700;2022-08-03T11:44:42;100291.91;;;32.01;35.25
40940;BME280;26666;50.156;7.700;2022-08-03T11:49:49;100288.34;;;31.65;35.47
40940;BME280;26666;50.156;7.700;2022-08-03T11:54:52;100287.00;;;31.57;35.79
40940;BME280;26666;50.156;7.700;2022-08-03T11:59:57;100282.09;;;31.54;35.73
40940;BME280;26666;50.156;7.700;2022-08-03T12:04:59;100280.38;;;31.33;36.18
40940;BME280;26666;50.156;7.700;2022-08-03T12:15:09;100264.28;;;31.26;35.88
40940;BME280;26666;50.156;7.700;2022-08-03T12:20:20;100261.84;;;31.40;35.58
40940;BME280;26666;50.156;7.700;2022-08-03T12:25:36;100260.19;;;31.44;35.19
40940;BME280;26666;50.156;7.700;2022-08-03T12:30:40;100266.50;;;31.44;35.54
40940;BME280;26666;50.156;7.700;2022-08-03T12:35:42;100251.75;;;31.46;35.55
40940;BME280;26666;50.156;7.700;2022-08-03T12:40:57;100259.97;;;31.51;35.23
40940;BME280;26666;50.156;7.700;2022-08-03T12:46:17;100245.44;;;31.24;35.22
40940;BME280;26666;50.156;7.700;2022-08-03T12:51:18;100245.22;;;31.47;35.20
40940;BME280;26666;50.156;7.700;2022-08-03T12:56:20;100234.53;;;31.19;34.85
40940;BME280;26666;50.156;7.700;2022-08-03T13:01:21;100237.81;;;31.42;34.37
40940;BME280;26666;50.156;7.700;2022-08-03T13:06:24;100234.28;;;31.57;34.05
40940;BME280;26666;50.156;7.700;2022-08-03T13:11:26;100234.81;;;31.74;34.44
40940;BME280;26666;50.156;7.700;2022-08-03T13:16:48;100228.00;;;31.67;33.81
40940;BME280;26666;50.156;7.700;2022-08-03T13:21:49;100218.41;;;31.38;35.69
40940;BME280;26666;50.156;7.700;2022-08-03T13:27:05;100225.50;;;32.06;33.40
40940;BME280;26666;50.156;7.700;2022-08-03T13:32:26;100223.56;;;31.96;33.69
40940;BME280;26666;50.156;7.700;2022-08-03T13:37:28;100208.88;;;31.67;34.26
40940;BME280;26666;50.156;7.700;2022-08-03T13:42:32;100217.06;;;31.41;34.82
40940;BME280;26666;50.156;7.700;2022-08-03T13:47:34;100201.78;;;31.50;34.57
40940;BME280;26666;50.156;7.700;2022-08-03T13:52:35;100202.34;;;31.62;34.21
40940;BME280;26666;50.156;7.700;2022-08-03T13:57:37;100199.03;;;31.40;33.88
40940;BME280;26666;50.156;7.700;2022-08-03T14:03:00;100196.28;;;31.86;33.93
40940;BME280;26666;50.156;7.700;2022-08-03T14:08:13;100186.47;;;31.70;33.51
40940;BME280;26666;50.156;7.700;2022-08-03T14:13:15;100176.66;;;31.38;34.53
40940;BME280;26666;50.156;7.700;2022-08-03T14:18:18;100176.66;;;31.33;34.45
40940;BME280;26666;50.156;7.700;2022-08-03T14:23:35;100163.28;;;31.67;34.30
40940;BME280;26666;50.156;7.700;2022-08-03T14:28:37;100166.84;;;31.27;34.78
40940;BME280;26666;50.156;7.700;2022-08-03T14:33:38;100173.41;;;31.56;34.08
40940;BME280;26666;50.156;7.700;2022-08-03T14:38:40;100158.66;;;31.11;34.92
40940;BME280;26666;50.156;7.700;2022-08-03T14:43:41;100158.66;;;31.47;34.46
40940;BME280;26666;50.156;7.700;2022-08-03T14:49:02;100157.00;;;31.72;33.40
40940;BME280;26666;50.156;7.700;2022-08-03T14:54:24;100157.00;;;31.72;33.47
40940;BME280;26666;50.156;7.700;2022-08-03T14:59:28;100153.19;;;31.57;33.86
40940;BME280;26666;50.156;7.700;2022-08-03T15:04:50;100144.44;;;31.60;34.17
40940;BME280;26666;50.156;7.700;2022-08-03T15:09:52;100140.63;;;31.67;33.47
40940;BME280;26666;50.156;7.700;2022-08-03T15:14:53;100131.94;;;31.08;34.57
40940;BME280;26666;50.156;7.700;2022-08-03T15:19:55;100129.16;;;31.64;33.79
40940;BME280;26666;50.156;7.700;2022-08-03T15:25:17;100123.06;;;30.39;36.07
40940;BME280;26666;50.156;7.700;2022-08-03T15:30:38;100118.28;;;30.98;35.20
40940;BME280;26666;50.156;7.700;2022-08-03T15:35:40;100113.38;;;31.05;34.58
40940;BME280;26666;50.156;7.700;2022-08-03T15:40:41;100108.72;;;30.95;35.32
40940;BME280;26666;50.156;7.700;2022-08-03T15:45:43;100107.53;;;30.35;36.60
40940;BME280;26666;50.156;7.700;2022-08-03T15:50:44;100104.38;;;29.95;37.89
40940;BME280;26666;50.156;7.700;2022-08-03T15:55:46;100108.69;;;29.86;38.57
40940;BME280;26666;50.156;7.700;2022-08-03T16:00:48;100099.94;;;29.79;38.57
40940;BME280;26666;50.156;7.700;2022-08-03T16:05:49;100100.09;;;29.62;39.46
40940;BME280;26666;50.156;7.700;2022-08-03T16:10:51;100095.66;;;29.93;37.16
40940;BME280;26666;50.156;7.700;2022-08-03T16:15:53;100094.88;;;29.55;38.98
40940;BME280;26666;50.156;7.700;2022-08-03T16:20:54;100087.94;;;29.32;39.47
40940;BME280;26666;50.156;7.700;2022-08-03T16:25:56;100084.19;;;29.38;39.68
40940;BME280;26666;50.156;7.700;2022-08-03T16:30:58;100088.31;;;29.46;38.57
40940;BME280;26666;50.156;7.700;2022-08-03T16:35:59;100080.59;;;29.75;37.46
40940;BME280;26666;50.156;7.700;2022-08-03T16:41:01;100078.00;;;29.48;38.78
40940;BME280;26666;50.156;7.700;2022-08-03T16:46:03;100080.97;;;29.99;37.13
40940;BME280;26666;50.156;7.700;2022-08-03T16:51:04;100071.66;;;29.85;37.27
40940;BME280;26666;50.156;7.700;2022-08-03T16:56:06;100067.09;;;29.53;38.98
40940;BME280;26666;50.156;7.700;2022-08-03T17:01:12;100077.63;;;29.82;37.12
40940;BME280;26666;50.156;7.700;2022-08-03T17:06:24;100076.47;;;29.67;37.54
40940;BME280;26666;50.156;7.700;2022-08-03T17:11:36;100086.97;;;29.48;39.09
40940;BME280;26666;50.156;7.700;2022-08-03T17:16:39;100080.94;;;29.41;38.71
40940;BME280;26666;50.156;7.700;2022-08-03T17:22:08;100077.34;;;29.31;39.40
40940;BME280;26666;50.156;7.700;2022-08-03T17:27:17;100082.53;;;29.00;40.23
40940;BME280;26666;50.156;7.700;2022-08-03T17:32:41;100078.75;;;29.06;38.94
40940;BME280;26666;50.156;7.700;2022-08-03T17:37:57;100072.97;;;28.97;39.75
40940;BME280;26666;50.156;7.700;2022-08-03T17:43:07;100076.41;;;28.82;39.58
40940;BME280;26666;50.156;7.700;2022-08-03T17:48:30;100070.34;;;28.75;39.33
40940;BME280;26666;50.156;7.700;2022-08-03T17:53:37;100084.03;;;28.85;39.04
40940;BME280;26666;50.156;7.700;2022-08-03T17:59:05;100093.06;;;28.64;40.12
40940;BME280;26666;50.156;7.700;2022-08-03T18:04:10;100087.59;;;28.37;41.61
40940;BME280;26666;50.156;7.700;2022-08-03T18:09:13;100096.44;;;28.22;41.53
40940;BME280;26666;50.156;7.700;2022-08-03T18:14:55;100091.31;;;28.03;42.44
40940;BME280;26666;50.156;7.700;2022-08-03T18:20:01;100096.25;;;28.06;42.53
40940;BME280;26666;50.156;7.700;2022-08-03T18:25:23;100089.97;;;27.84;43.83
40940;BME280;26666;50.156;7.700;2022-08-03T18:30:46;100096.53;;;27.66;44.98
40940;BME280;26666;50.156;7.700;2022-08-03T18:35:56;100094.25;;;27.58;44.58
40940;BME280;26666;50.156;7.700;2022-08-03T18:40:57;100103.38;;;27.51;45.35
40940;BME280;26666;50.156;7.700;2022-08-03T18:46:03;100098.13;;;27.28;46.68
40940;BME280;26666;50.156;7.700;2022-08-03T18:51:12;100101.16;;;26.98;47.63
40940;BME280;26666;50.156;7.700;2022-08-03T18:56:43;100111.03;;;27.04;46.17
40940;BME280;26666;50.156;7.700;2022-08-03T19:01:49;100114.13;;;26.79;46.93
40940;BME280;26666;50.156;7.700;2022-08-03T19:07:06;100117.88;;;26.61;47.43
40940;BME280;26666;50.156;7.700;2022-08-03T19:12:16;100119.78;;;26.48;47.80
40940;BME280;26666;50.156;7.700;2022-08-03T19:17:34;100132.88;;;26.40;47.52
40940;BME280;26666;50.156;7.700;2022-08-03T19:22:39;100144.84;;;26.27;47.81
40940;BME280;26666;50.156;7.700;2022-08-03T19:27:46;100145.44;;;26.05;48.57
40940;BME280;26666;50.156;7.700;2022-08-03T19:32:49;100158.78;;;25.95;47.79
40940;BME280;26666;50.156;7.700;2022-08-03T19:37:51;100156.41;;;25.87;48.75
40940;BME280;26666;50.156;7.700;2022-08-03T19:43:00;100157.09;;;25.70;49.80
40940;BME280;26666;50.156;7.700;2022-08-03T19:48:09;100161.59;;;25.53;50.87
40940;BME280;26666;50.156;7.700;2022-08-03T19:53:12;100155.56;;;25.39;50.84
40940;BME280;26666;50.156;7.700;2022-08-03T19:58:13;100164.16;;;25.36;51.14
40940;BME280;26666;50.156;7.700;2022-08-03T20:03:28;100158.97;;;25.23;51.58
40940;BME280;26666;50.156;7.700;2022-08-03T20:08:43;100169.16;;;25.09;51.18
40940;BME280;26666;50.156;7.700;2022-08-03T20:13:53;100172.53;;;25.04;51.50
40940;BME280;26666;50.156;7.700;2022-08-03T20:18:55;100159.13;;;24.97;51.19
40940;BME280;26666;50.156;7.700;2022-08-03T20:23:58;100163.09;;;24.83;51.71
40940;BME280;26666;50.156;7.700;2022-08-03T20:29:27;100168.78;;;24.75;51.76
40940;BME280;26666;50.156;7.700;2022-08-03T20:34:49;100169.03;;;24.73;52.14
40940;BME280;26666;50.156;7.700;2022-08-03T20:39:53;100170.41;;;24.46;52.03
40940;BME280;26666;50.156;7.700;2022-08-03T20:44:55;100170.19;;;24.47;51.88
40940;BME280;26666;50.156;7.700;2022-08-03T20:50:07;100164.88;;;24.40;52.23
40940;BME280;26666;50.156;7.700;2022-08-03T20:55:09;100176.66;;;24.28;52.11
40940;BME280;26666;50.156;7.700;2022-08-03T21:00:15;100165.63;;;24.11;52.26
40940;BME280;26666;50.156;7.700;2022-08-03T21:05:17;100178.81;;;24.00;52.93
40940;BME280;26666;50.156;7.700;2022-08-03T21:10:39;100169.91;;;24.00;52.66
40940;BME280;26666;50.156;7.700;2022-08-03T21:15:48;100175.91;;;23.77;53.31
40940;BME280;26666;50.156;7.700;2022-08-03T21:21:12;100175.53;;;23.73;53.33
40940;BME280;26666;50.156;7.700;2022-08-03T21:26:17;100168.44;;;23.79;53.51
40940;BME280;26666;50.156;7.700;2022-08-03T21:31:19;100161.53;;;23.65;54.04
40940;BME280;26666;50.156;7.700;2022-08-03T21:36:28;100167.13;;;23.63;54.13
40940;BME280;26666;50.156;7.700;2022-08-03T21:41:31;100167.41;;;23.55;54.26
40940;BME280;26666;50.156;7.700;2022-08-03T21:46:35;100167.34;;;23.36;54.75
40940;BME280;26666;50.156;7.700;2022-08-03T21:51:38;100167.19;;;23.31;54.72
40940;BME280;26666;50.156;7.700;2022-08-03T21:56:41;100158.13;;;23.26;54.95
40940;BME280;26666;50.156;7.700;2022-08-03T22:01:45;100167.38;;;22.98;55.87
40940;BME280;26666;50.156;7.700;2022-08-03T22:06:49;100173.78;;;23.10;55.81
40940;BME280;26666;50.156;7.700;2022-08-03T22:11:51;100165.94;;;23.02;56.22
40940;BME280;26666;50.156;7.700;2022-08-03T22:16:53;100168.72;;;22.89;56.43
40940;BME280;26666;50.156;7.700;2022-08-03T22:21:55;100175.56;;;22.84;56.79
40940;BME280;26666;50.156;7.700;2022-08-03T22:26:59;100178.88;;;22.87;56.98
40940;BME280;26666;50.156;7.700;2022-08-03T22:32:01;100177.06;;;22.74;57.23
40940;BME280;26666;50.156;7.700;2022-08-03T22:37:03;100181.44;;;22.75;56.77
40940;BME280;26666;50.156;7.700;2022-08-03T22:42:07;100177.50;;;22.25;58.37
40940;BME280;26666;50.156;7.700;2022-08-03T22:47:09;100172.56;;;22.68;57.80
40940;BME280;26666;50.156;7.700;2022-08-03T22:52:11;100183.03;;;22.44;58.00
40940;BME280;26666;50.156;7.700;2022-08-03T22:57:14;100184.34;;;22.28;58.59
40940;BME280;26666;50.156;7.700;2022-08-03T23:02:18;100179.50;;;22.43;58.42
40940;BME280;26666;50.156;7.700;2022-08-03T23:07:35;100186.81;;;22.10;59.25
40940;BME280;26666;50.156;7.700;2022-08-03T23:12:38;100190.94;;;22.32;59.01
40940;BME280;26666;50.156;7.700;2022-08-03T23:17:48;100188.50;;;22.04;59.67
40940;BME280;26666;50.156;7.700;2022-08-03T23:22:59;100189.50;;;22.10;59.55
40940;BME280;26666;50.156;7.700;2022-08-03T23:33:07;100195.16;;;21.88;60.46
40940;BME280;26666;50.156;7.700;2022-08-03T23:38:11;100189.38;;;21.64;61.37
40940;BME280;26666;50.156;7.700;2022-08-03T23:43:29;100196.00;;;21.82;61.50
40940;BME280;26666;50.156;7.700;2022-08-03T23:48:51;100196.63;;;21.44;62.48
40940;BME280;26666;50.156;7.700;2022-08-03T23:59:55;100198.47;;;21.43;62.99
